Time,TemperatureF,DewpointF,PressureIn,WindDirection,WindDirectionDegrees,WindSpeedMPH,WindSpeedGustMPH,Humidity,HourlyPrecipIn,Conditions,Clouds,dailyrainin,SoftwareType,DateUTC
2013-07-15 00:05:00,55.4,50.0,29.82,NNW,337,2.0,2.0,82,0.00,,,0.00,weatherlink.com 1.10,2013-07-15 06:05:00,
2013-07-15 00:21:00,54.2,50.0,29.82,WNW,282,2.0,3.0,84,0.00,,,0.00,weatherlink.com 1.10,2013-07-15 06:21:00,
2013-07-15 00:36:00,53.6,49.0,29.83,North,353,2.0,3.0,85,0.00,,,0.00,weatherlink.com 1.10,2013-07-15 06:36:00,
2013-07-15 00:51:00,53.9,50.0,29.83,NNE,33,1.0,2.0,85,0.00,,,0.00,weatherlink.com 1.10,2013-07-15 06:51:00,
2013-07-15 01:06:00,53.6,50.0,29.83,SE,135,1.0,2.0,86,0.00,,,0.00,weatherlink.com 1.10,2013-07-15 07:06:00,
2013-07-15 01:21:00,53.5,50.0,29.83,SE,128,0.0,1.0,87,0.00,,,0.00,weatherlink.com 1.10,2013-07-15 07:21:00,
2013-07-15 01:36:00,52.9,50.0,29.83,West,280,0.0,1.0,89,0.00,,,0.00,weatherlink.com 1.10,2013-07-15 07:36:00,
2013-07-15 01:51:00,53.1,50.0,29.83,West,280,0.0,0.0,88,0.00,,,0.00,weatherlink.com 1.10,2013-07-15 07:51:00,
2013-07-15 02:06:00,53.1,50.0,29.83,West,280,0.0,0.0,89,0.00,,,0.00,weatherlink.com 1.10,2013-07-15 08:06:00,
2013-07-15 02:21:00,53.0,50.0,29.82,West,280,0.0,0.0,90,0.00,,,0.00,weatherlink.com 1.10,2013-07-15 08:21:00,
2013-07-15 02:36:00,52.7,50.0,29.83,West,280,0.0,0.0,91,0.00,,,0.00,weatherlink.com 1.10,2013-07-15 08:36:00,
2013-07-15 02:51:00,52.6,50.0,29.82,West,280,0.0,0.0,91,0.00,,,0.00,weatherlink.com 1.10,2013-07-15 08:51:00,
2013-07-15 03:06:00,52.7,50.0,29.82,WNW,302,2.0,3.0,90,0.00,,,0.00,weatherlink.com 1.10,2013-07-15 09:06:00,
2013-07-15 03:21:00,52.6,50.0,29.81,NW,325,1.0,4.0,89,0.00,,,0.00,weatherlink.com 1.10,2013-07-15 09:21:00,
2013-07-15 03:36:00,52.5,50.0,29.81,NW,324,0.0,1.0,90,0.00,,,0.00,weatherlink.com 1.10,2013-07-15 09:36:00,
2013-07-15 03:51:00,52.4,50.0,29.80,NW,324,0.0,1.0,90,0.00,,,0.00,weatherlink.com 1.10,2013-07-15 09:51:00,
2013-07-15 04:06:00,52.4,50.0,29.80,NW,325,0.0,0.0,90,0.00,,,0.00,weatherlink.com 1.10,2013-07-15 10:06:00,
2013-07-15 04:21:00,52.8,50.0,29.80,NE,34,1.0,2.0,89,0.00,,,0.00,weatherlink.com 1.10,2013-07-15 10:21:00,
2013-07-15 04:36:00,52.7,50.0,29.80,SSE,165,2.0,2.0,89,0.00,,,0.00,weatherlink.com 1.10,2013-07-15 10:36:00,
2013-07-15 04:51:00,52.4,50.0,29.80,South,170,2.0,2.0,90,0.00,,,0.00,weatherlink.com 1.10,2013-07-15 10:51:00,
2013-07-15 05:06:00,51.6,49.0,29.79,ESE,119,2.0,2.0,91,0.00,,,0.00,weatherlink.com 1.10,2013-07-15 11:06:00,
2013-07-15 05:21:00,50.3,48.0,29.80,SSW,205,1.0,2.0,93,0.00,,,0.00,weatherlink.com 1.10,2013-07-15 11:21:00,
2013-07-15 05:36:00,49.7,48.0,29.80,WSW,246,0.0,1.0,94,0.00,,,0.00,weatherlink.com 1.10,2013-07-15 11:36:00,
2013-07-15 05:51:00,49.4,48.0,29.80,NNW,342,0.0,1.0,95,0.00,,,0.00,weatherlink.com 1.10,2013-07-15 11:51:00,
2013-07-15 06:06:00,48.9,48.0,29.81,NNW,346,0.0,0.0,95,0.00,,,0.00,weatherlink.com 1.10,2013-07-15 12:06:00,
2013-07-15 06:21:00,47.5,46.0,29.81,WNW,302,0.0,0.0,93,0.00,,,0.00,weatherlink.com 1.10,2013-07-15 12:21:00,
2013-07-15 06:36:00,47.6,46.0,29.82,NW,305,1.0,2.0,95,0.00,,,0.00,weatherlink.com 1.10,2013-07-15 12:36:00,
2013-07-15 06:51:00,47.5,46.0,29.82,NNW,347,1.0,3.0,94,0.00,,,0.00,weatherlink.com 1.10,2013-07-15 12:51:00,
2013-07-15 07:06:00,49.9,48.0,29.82,NNW,341,2.0,3.0,92,0.00,,,0.00,weatherlink.com 1.10,2013-07-15 13:06:00,
2013-07-15 07:21:00,51.0,48.0,29.82,NNW,340,2.0,3.0,90,0.00,,,0.00,weatherlink.com 1.10,2013-07-15 13:21:00,
2013-07-15 07:36:00,52.5,49.0,29.81,NE,38,1.0,3.0,88,0.00,,,0.00,weatherlink.com 1.10,2013-07-15 13:36:00,
2013-07-15 07:51:00,53.0,49.0,29.81,North,354,0.0,1.0,87,0.00,,,0.00,weatherlink.com 1.10,2013-07-15 13:51:00,
2013-07-15 08:06:00,53.3,50.0,29.80,NNW,348,0.0,0.0,87,0.00,,,0.00,weatherlink.com 1.10,2013-07-15 14:06:00,
2013-07-15 08:21:00,54.3,50.0,29.80,East,98,0.0,0.0,85,0.00,,,0.00,weatherlink.com 1.10,2013-07-15 14:21:00,
2013-07-15 08:36:00,56.6,51.0,29.80,North,359,1.0,2.0,81,0.00,,,0.00,weatherlink.com 1.10,2013-07-15 14:36:00,
2013-07-15 08:52:00,59.1,51.0,29.80,NE,46,2.0,3.0,74,0.00,,,0.00,weatherlink.com 1.10,2013-07-15 14:52:00,
2013-07-15 09:37:00,62.9,49.0,29.79,ESE,123,0.0,0.0,61,0.00,,,0.00,weatherlink.com 1.10,2013-07-15 15:37:00,
2013-07-15 10:07:00,64.7,49.0,29.77,SSE,151,1.0,5.0,57,0.00,,,0.00,weatherlink.com 1.10,2013-07-15 16:07:00,
2013-07-15 10:22:00,64.8,50.0,29.76,East,94,3.0,4.0,59,0.00,,,0.00,weatherlink.com 1.10,2013-07-15 16:22:00,
2013-07-15 10:37:00,65.5,50.0,29.75,SE,131,4.0,8.0,57,0.00,,,0.00,weatherlink.com 1.10,2013-07-15 16:37:00,
2013-07-15 10:52:00,66.0,49.0,29.75,SSE,148,4.0,7.0,54,0.00,,,0.00,weatherlink.com 1.10,2013-07-15 16:52:00,
2013-07-15 11:22:00,66.5,49.0,29.74,SSE,152,6.0,11.0,54,0.00,,,0.00,weatherlink.com 1.10,2013-07-15 17:22:00,
2013-07-15 11:37:00,66.3,48.0,29.74,SE,146,6.0,12.0,53,0.00,,,0.00,weatherlink.com 1.10,2013-07-15 17:37:00,
2013-07-15 11:52:00,66.5,49.0,29.74,SSE,148,8.0,11.0,54,0.00,,,0.00,weatherlink.com 1.10,2013-07-15 17:52:00,
2013-07-15 12:07:00,67.3,49.0,29.73,SE,146,10.0,11.0,52,0.00,,,0.00,weatherlink.com 1.10,2013-07-15 18:07:00,
2013-07-15 12:22:00,67.0,49.0,29.73,SSE,166,7.0,13.0,53,0.00,,,0.00,weatherlink.com 1.10,2013-07-15 18:22:00,
2013-07-15 12:52:00,67.1,47.0,29.72,SE,131,6.0,13.0,48,0.00,,,0.00,weatherlink.com 1.10,2013-07-15 18:52:00,
2013-07-15 13:22:00,66.9,49.0,29.71,ESE,120,11.0,12.0,52,0.00,,,0.00,weatherlink.com 1.10,2013-07-15 19:22:00,
2013-07-15 13:37:00,66.6,48.0,29.72,NE,56,11.0,12.0,52,0.00,,,0.00,weatherlink.com 1.10,2013-07-15 19:37:00,
2013-07-15 13:52:00,64.9,48.0,29.72,ESE,111,11.0,15.0,55,0.00,,,0.00,weatherlink.com 1.10,2013-07-15 19:52:00,
2013-07-15 14:07:00,64.5,47.0,29.73,ESE,117,7.0,13.0,53,0.00,,,0.00,weatherlink.com 1.10,2013-07-15 20:07:00,
2013-07-15 14:22:00,61.2,50.0,29.73,ENE,66,4.0,10.0,68,0.00,,,0.00,weatherlink.com 1.10,2013-07-15 20:22:00,
2013-07-15 14:37:00,58.7,52.0,29.73,SE,126,10.0,10.0,79,0.01,,,0.01,weatherlink.com 1.10,2013-07-15 20:37:00,
2013-07-15 14:52:00,58.5,52.0,29.72,SSE,154,8.0,11.0,79,0.01,,,0.01,weatherlink.com 1.10,2013-07-15 20:52:00,
2013-07-15 15:22:00,61.3,52.0,29.72,South,176,4.0,12.0,71,0.02,,,0.02,weatherlink.com 1.10,2013-07-15 21:22:00,
2013-07-15 15:37:00,63.3,49.0,29.73,SSW,200,3.0,10.0,60,0.01,,,0.02,weatherlink.com 1.10,2013-07-15 21:37:00,
2013-07-15 15:52:00,63.7,49.0,29.72,SSE,158,5.0,9.0,60,0.01,,,0.02,weatherlink.com 1.10,2013-07-15 21:52:00,
2013-07-15 16:07:00,63.1,48.0,29.72,SSE,158,7.0,8.0,59,0.01,,,0.02,weatherlink.com 1.10,2013-07-15 22:07:00,
2013-07-15 16:22:00,62.5,50.0,29.72,ESE,114,6.0,10.0,63,0.00,,,0.02,weatherlink.com 1.10,2013-07-15 22:22:00,
2013-07-15 16:37:00,63.1,51.0,29.72,SSE,162,5.0,8.0,64,0.00,,,0.02,weatherlink.com 1.10,2013-07-15 22:37:00,
2013-07-15 16:52:00,62.6,50.0,29.72,SE,139,12.0,15.0,64,0.00,,,0.02,weatherlink.com 1.10,2013-07-15 22:52:00,
2013-07-15 17:22:00,63.4,49.0,29.72,South,187,5.0,12.0,59,0.00,,,0.02,weatherlink.com 1.10,2013-07-15 23:22:00,
2013-07-15 17:37:00,62.5,48.0,29.72,SE,145,3.0,6.0,59,0.00,,,0.02,weatherlink.com 1.10,2013-07-15 23:37:00,
2013-07-15 17:52:00,62.0,48.0,29.72,SE,127,3.0,5.0,61,0.00,,,0.02,weatherlink.com 1.10,2013-07-15 23:52:00,
2013-07-15 18:07:00,62.2,49.0,29.72,SSW,205,3.0,6.0,62,0.00,,,0.02,weatherlink.com 1.10,2013-07-16 00:07:00,
2013-07-15 18:22:00,62.1,48.0,29.73,SSW,207,1.0,4.0,61,0.00,,,0.02,weatherlink.com 1.10,2013-07-16 00:22:00,
2013-07-15 18:37:00,62.4,49.0,29.73,SW,221,1.0,2.0,61,0.00,,,0.02,weatherlink.com 1.10,2013-07-16 00:37:00,
2013-07-15 18:52:00,62.2,48.0,29.73,SSW,212,1.0,3.0,61,0.00,,,0.02,weatherlink.com 1.10,2013-07-16 00:52:00,
2013-07-15 19:08:00,62.2,49.0,29.72,WSW,238,2.0,2.0,63,0.00,,,0.02,weatherlink.com 1.10,2013-07-16 01:08:00,
2013-07-15 19:23:00,61.3,50.0,29.72,West,264,3.0,8.0,67,0.00,,,0.02,weatherlink.com 1.10,2013-07-16 01:23:00,
2013-07-15 19:38:00,60.9,51.0,29.73,West,269,3.0,6.0,69,0.00,,,0.02,weatherlink.com 1.10,2013-07-16 01:38:00,
2013-07-15 19:53:00,60.7,50.0,29.73,SE,127,6.0,11.0,69,0.00,,,0.02,weatherlink.com 1.10,2013-07-16 01:53:00,
2013-07-15 20:08:00,60.3,50.0,29.74,ENE,75,12.0,15.0,69,0.00,,,0.02,weatherlink.com 1.10,2013-07-16 02:08:00,
2013-07-15 20:23:00,57.2,50.0,29.75,East,91,3.0,8.0,78,0.02,,,0.04,weatherlink.com 1.10,2013-07-16 02:23:00,
2013-07-15 20:53:00,55.3,52.0,29.76,NW,319,4.0,4.0,88,0.03,,,0.05,weatherlink.com 1.10,2013-07-16 02:53:00,
2013-07-15 21:23:00,54.6,52.0,29.78,NNE,21,2.0,4.0,89,0.02,,,0.06,weatherlink.com 1.10,2013-07-16 03:23:00,
2013-07-15 21:53:00,54.1,49.0,29.80,NW,314,3.0,6.0,84,0.02,,,0.07,weatherlink.com 1.10,2013-07-16 03:53:00,
2013-07-15 22:08:00,53.5,50.0,29.81,West,281,0.0,2.0,87,0.01,,,0.07,weatherlink.com 1.10,2013-07-16 04:08:00,
2013-07-15 22:23:00,53.3,50.0,29.81,NNW,327,3.0,6.0,88,0.01,,,0.07,weatherlink.com 1.10,2013-07-16 04:23:00,
2013-07-15 22:38:00,52.7,50.0,29.81,NNW,336,3.0,5.0,89,0.01,,,0.07,weatherlink.com 1.10,2013-07-16 04:38:00,
2013-07-15 22:53:00,52.6,50.0,29.81,NW,319,3.0,6.0,90,0.00,,,0.07,weatherlink.com 1.10,2013-07-16 04:53:00,
2013-07-15 23:08:00,52.5,50.0,29.81,North,359,2.0,6.0,90,0.00,,,0.07,weatherlink.com 1.10,2013-07-16 05:08:00,
2013-07-15 23:23:00,52.7,50.0,29.82,NNW,327,2.0,4.0,89,0.00,,,0.07,weatherlink.com 1.10,2013-07-16 05:23:00,
2013-07-15 23:38:00,52.3,50.0,29.82,WNW,288,1.0,3.0,90,0.00,,,0.07,weatherlink.com 1.10,2013-07-16 05:38:00,
2013-07-15 23:53:00,52.4,49.0,29.82,NW,319,2.0,3.0,89,0.00,,,0.07,weatherlink.com 1.10,2013-07-16 05:53:00,